Time;durP1;ratioP1;P1;durP2;ratioP2;P2;SDS_P1;SDS_P2;PMS_P1;PMS_P2;Temp;Humidity;BMP_temperature;BMP_pressure;BME280_temperature;BME280_humidity;BME280_pressure;Samples;Min_cycle;Max_cycle;Signal;HPM_P1;HPM_P2
2024/03/26 00:01:45;;;;;;;9.90;4.83;;;;;;;5.19;100.00;98696.44;4937026;28;20166;-70
2024/03/26 00:04:13;;;;;;;9.50;4.83;;;;;;;5.07;100.00;98689.72;4921288;29;20065;-70
2024/03/26 00:06:41;;;;;;;12.97;5.87;;;;;;;4.88;100.00;98693.28;4917192;29;20047;-69
2024/03/26 00:09:09;;;;;;;12.07;6.30;;;;;;;5.08;100.00;98696.63;4934270;29;20089;-69
2024/03/26 00:11:37;;;;;;;13.10;5.50;;;;;;;5.08;100.00;98691.38;4936532;29;20051;-69
2024/03/26 00:14:04;;;;;;;8.40;5.30;;;;;;;5.15;100.00;98693.25;4920380;29;20506;-69
2024/03/26 00:16:35;;;;;;;;;;;;;;;5.21;100.00;98699.75;4936505;29;20058;-69
2024/03/26 00:19:33;;;;;;;10.63;4.90;;;;;;;5.14;100.00;98706.56;4936902;29;19922;-69
2024/03/26 00:22:05;;;;;;;12.57;5.20;;;;;;;5.03;100.00;98699.69;4920580;29;20119;-69
2024/03/26 00:24:31;;;;;;;11.60;5.18;;;;;;;4.95;100.00;98709.31;4964139;28;20065;-70
2024/03/26 00:26:58;;;;;;;9.10;4.83;;;;;;;4.92;100.00;98709.59;4994246;28;20145;-69
2024/03/26 00:29:24;;;;;;;9.70;4.40;;;;;;;4.89;100.00;98705.44;4978321;28;20148;-70
2024/03/26 00:31:50;;;;;;;9.17;4.50;;;;;;;4.86;100.00;98702.25;4994422;28;20046;-70
2024/03/26 00:34:16;;;;;;;10.20;5.00;;;;;;;4.83;100.00;98706.03;4961917;28;20056;-69
2024/03/26 00:36:42;;;;;;;10.50;5.50;;;;;;;4.77;100.00;98708.38;4963948;28;20464;-69
2024/03/26 00:39:08;;;;;;;10.90;5.23;;;;;;;4.74;100.00;98706.88;4981222;28;20054;-69
2024/03/26 00:41:34;;;;;;;10.23;5.20;;;;;;;4.72;100.00;98708.81;5010138;28;20048;-70
2024/03/26 00:44:00;;;;;;;11.53;5.23;;;;;;;4.75;100.00;98707.72;4961726;28;20064;-69
2024/03/26 00:46:26;;;;;;;15.20;6.00;;;;;;;4.73;100.00;98718.41;4961720;28;20042;-70
2024/03/26 00:48:52;;;;;;;14.03;5.60;;;;;;;4.72;100.00;98710.66;4977738;28;20049;-69
2024/03/26 00:51:19;;;;;;;10.57;5.23;;;;;;;4.50;100.00;98703.09;4954819;28;20054;-69
2024/03/26 00:53:45;;;;;;;16.57;5.90;;;;;;;4.53;100.00;98701.03;4953931;28;20054;-70
2024/03/26 00:56:15;;;;;;;11.60;5.20;;;;;;;4.69;100.00;98710.94;4955571;28;20620;-69
2024/03/26 00:58:41;;;;;;;12.23;5.37;;;;;;;4.60;100.00;98702.09;4955221;28;20457;-69
2024/03/26 01:01:12;;;;;;;8.80;4.90;;;;;;;4.68;100.00;98702.22;4954908;28;20485;-69
2024/03/26 01:03:40;;;;;;;8.13;4.63;;;;;;;4.55;100.00;98714.81;4941990;28;20051;-69
2024/03/26 01:06:07;;;;;;;9.27;4.87;;;;;;;4.54;100.00;98710.56;4973447;28;20049;-69
2024/03/26 01:08:32;;;;;;;10.80;4.97;;;;;;;4.50;100.00;98718.88;4955865;28;20054;-69
2024/03/26 01:10:58;;;;;;;10.40;5.10;;;;;;;4.50;100.00;98718.88;4939087;28;20035;-69
2024/03/26 01:13:27;;;;;;;9.50;4.80;;;;;;;4.49;100.00;98719.84;4954915;28;20513;-69
2024/03/26 01:15:55;;;;;;;9.43;4.77;;;;;;;4.46;100.00;98717.50;4955450;28;20090;-69
2024/03/26 01:18:22;;;;;;;9.10;5.00;;;;;;;4.52;100.00;98722.19;4954957;28;20043;-69
2024/03/26 01:20:49;;;;;;;9.17;4.80;;;;;;;4.42;100.00;98711.69;4972290;28;20062;-69
2024/03/26 01:23:15;;;;;;;8.37;4.90;;;;;;;4.42;100.00;98724.00;4974064;28;20150;-69
2024/03/26 01:25:41;;;;;;;16.33;5.20;;;;;;;4.38;100.00;98720.00;4974320;28;20046;-69
2024/03/26 01:28:09;;;;;;;17.97;6.80;;;;;;;4.34;100.00;98719.47;4953478;28;20056;-69
2024/03/26 01:30:37;;;;;;;12.47;5.60;;;;;;;4.42;100.00;98722.22;5030759;28;20049;-69
2024/03/26 01:33:06;;;;;;;;;;;;;;;4.51;100.00;98726.63;5014472;28;20053;-69
2024/03/26 01:35:33;;;;;;;12.43;6.17;;;;;;;4.30;100.00;98727.75;4997934;28;19921;-69
2024/03/26 01:38:00;;;;;;;11.53;6.00;;;;;;;4.27;100.00;98734.13;5013241;28;20157;-69
2024/03/26 01:40:26;;;;;;;14.93;7.20;;;;;;;4.25;100.00;98724.72;4997103;28;20547;-69
2024/03/26 01:42:53;;;;;;;11.20;5.97;;;;;;;4.31;100.00;98724.16;4996963;28;20068;-69
2024/03/26 01:45:19;;;;;;;9.17;5.07;;;;;;;4.26;100.00;98729.03;5013380;28;20045;-68
2024/03/26 01:47:45;;;;;;;9.97;4.93;;;;;;;4.26;100.00;98726.41;4996820;28;20080;-68
2024/03/26 01:50:12;;;;;;;9.73;5.17;;;;;;;4.36;100.00;98724.56;4980148;28;20042;-68
2024/03/26 01:52:39;;;;;;;10.67;5.20;;;;;;;4.29;100.00;98718.22;4974348;28;20069;-69
2024/03/26 01:55:08;;;;;;;9.47;5.07;;;;;;;4.33;100.00;98732.75;4959593;28;20400;-69
2024/03/26 01:57:34;;;;;;;8.13;5.00;;;;;;;4.37;100.00;98727.06;4958497;28;20061;-69
2024/03/26 02:00:00;;;;;;;9.10;4.73;;;;;;;4.37;100.00;98734.09;4974578;28;20117;-69
2024/03/26 02:02:27;;;;;;;8.70;4.87;;;;;;;4.36;100.00;98742.97;4959092;28;20131;-69
2024/03/26 02:04:53;;;;;;;9.10;5.20;;;;;;;4.47;100.00;98742.81;4935755;29;20581;-69
2024/03/26 02:07:19;;;;;;;9.30;5.23;;;;;;;4.52;100.00;98745.84;4923090;28;20182;-69
2024/03/26 02:09:47;;;;;;;10.07;5.43;;;;;;;4.57;100.00;98736.56;4922919;29;20058;-68
2024/03/26 02:12:14;;;;;;;16.20;6.30;;;;;;;4.49;100.00;98736.44;4938355;29;20051;-69
2024/03/26 02:14:42;;;;;;;13.30;5.87;;;;;;;4.46;100.00;98731.47;4907737;29;20117;-69
2024/03/26 02:17:09;;;;;;;13.50;6.20;;;;;;;4.45;100.00;98737.69;4938931;29;20055;-69
2024/03/26 02:19:35;;;;;;;11.63;6.20;;;;;;;4.38;100.00;98741.84;4923012;29;20490;-69
2024/03/26 02:22:01;;;;;;;11.80;5.90;;;;;;;4.32;100.00;98747.66;4938816;28;20145;-70
2024/03/26 02:24:35;;;;;;;11.07;5.90;;;;;;;4.32;100.00;98747.66;4963115;28;20096;-70
2024/03/26 02:27:04;;;;;;;9.50;5.93;;;;;;;4.28;100.00;98750.72;5013152;28;20045;-69
2024/03/26 02:29:30;;;;;;;10.03;5.80;;;;;;;4.24;100.00;98750.19;4977032;28;20069;-72
2024/03/26 02:31:56;;;;;;;12.27;6.03;;;;;;;4.20;100.00;98745.31;4961205;28;20077;-69
2024/03/26 02:34:22;;;;;;;10.00;5.47;;;;;;;4.20;100.00;98753.22;4956160;28;20401;-70
2024/03/26 02:36:49;;;;;;;10.70;5.37;;;;;;;4.18;100.00;98750.72;5032039;28;20139;-69
2024/03/26 02:39:15;;;;;;;7.80;5.30;;;;;;;4.18;100.00;98755.16;5003204;28;20535;-69
2024/03/26 02:41:41;;;;;;;8.53;4.97;;;;;;;4.20;100.00;98759.31;5035604;28;20045;-70
2024/03/26 02:44:07;;;;;;;10.63;5.93;;;;;;;4.19;100.00;98756.81;4986629;28;20049;-68
2024/03/26 02:46:36;;;;;;;10.23;5.83;;;;;;;4.26;100.00;98750.06;5019347;28;20037;-70
2024/03/26 02:49:02;;;;;;;8.57;5.63;;;;;;;4.19;100.00;98751.56;5002815;28;20041;-72
2024/03/26 02:51:30;;;;;;;9.23;5.30;;;;;;;4.14;100.00;98754.59;5003538;28;20041;-69
2024/03/26 02:54:00;;;;;;;9.40;5.60;;;;;;;4.11;100.00;98764.56;5002735;28;20143;-70
2024/03/26 02:56:27;;;;;;;12.10;5.63;;;;;;;4.08;100.00;98754.31;4979826;28;20107;-69
2024/03/26 02:58:54;;;;;;;12.13;5.63;;;;;;;4.11;100.00;98761.94;4979875;28;20080;-67
2024/03/26 03:01:19;;;;;;;9.20;5.57;;;;;;;4.15;100.00;98763.34;4948709;28;20139;-69
2024/03/26 03:03:45;;;;;;;9.03;5.40;;;;;;;4.17;100.00;98766.63;4998169;28;20164;-69
2024/03/26 03:06:11;;;;;;;7.90;4.80;;;;;;;4.22;100.00;98767.03;4998057;28;20050;-69
2024/03/26 03:08:38;;;;;;;9.00;5.17;;;;;;;4.23;100.00;98766.09;4996455;28;20488;-70
2024/03/26 03:11:04;;;;;;;8.67;4.83;;;;;;;4.29;100.00;98768.16;4973525;28;20125;-70
2024/03/26 03:13:30;;;;;;;7.40;4.30;;;;;;;4.24;100.00;98776.47;4941217;28;20074;-70
2024/03/26 03:15:56;;;;;;;9.50;5.00;;;;;;;4.30;100.00;98778.53;4957236;28;20046;-70
2024/03/26 03:18:22;;;;;;;9.50;5.23;;;;;;;4.33;100.00;98793.19;4937306;29;20122;-68
2024/03/26 03:20:49;;;;;;;9.10;4.40;;;;;;;4.36;100.00;98790.28;4954142;28;20059;-69
2024/03/26 03:23:15;;;;;;;11.43;5.67;;;;;;;4.43;100.00;98794.84;4937295;28;20051;-69
2024/03/26 03:25:42;;;;;;;8.73;4.90;;;;;;;4.41;100.00;98788.88;4969875;28;20460;-69
2024/03/26 03:28:08;;;;;;;9.03;4.50;;;;;;;4.41;100.00;98790.69;4921889;29;20043;-69
2024/03/26 03:30:34;;;;;;;7.83;4.67;;;;;;;4.41;100.00;98786.25;4884204;29;20099;-75
2024/03/26 03:33:02;;;;;;;8.30;4.90;;;;;;;4.41;100.00;98788.88;4906985;29;20054;-68
2024/03/26 03:35:28;;;;;;;9.00;4.90;;;;;;;4.42;100.00;98792.34;4937487;29;20048;-68
2024/03/26 03:37:53;;;;;;;9.07;4.57;;;;;;;4.45;100.00;98799.94;4953788;28;20217;-68
2024/03/26 03:40:20;;;;;;;8.37;4.60;;;;;;;4.45;100.00;98800.78;4954146;29;20302;-67
2024/03/26 03:42:49;;;;;;;7.97;4.60;;;;;;;4.46;100.00;98799.81;4985439;28;20093;-72
2024/03/26 03:45:17;;;;;;;6.50;4.23;;;;;;;4.53;100.00;98798.31;4992217;28;20062;-67
2024/03/26 03:47:43;;;;;;;7.03;4.23;;;;;;;4.50;100.00;98793.31;4992177;28;20585;-69
2024/03/26 03:50:09;;;;;;;6.60;4.20;;;;;;;4.59;100.00;98799.53;4992433;28;20157;-68
2024/03/26 03:52:36;;;;;;;7.10;3.43;;;;;;;4.60;100.00;98804.63;4993167;28;20046;-68
2024/03/26 03:55:04;;;;;;;5.73;3.90;;;;;;;4.65;100.00;98806.84;4981481;28;20164;-67
2024/03/26 03:57:30;;;;;;;7.30;4.53;;;;;;;4.65;100.00;98804.22;4965319;28;20052;-67
2024/03/26 03:59:56;;;;;;;8.90;4.90;;;;;;;4.72;100.00;98811.41;4947795;28;20045;-67
2024/03/26 04:02:22;;;;;;;9.67;5.17;;;;;;;4.74;100.00;98819.97;5012617;28;20081;-68
2024/03/26 04:04:48;;;;;;;9.83;4.87;;;;;;;4.80;100.00;98821.22;5015601;28;20056;-68
2024/03/26 04:07:13;;;;;;;10.30;5.20;;;;;;;4.83;100.00;98831.44;5032655;28;20079;-68
2024/03/26 04:09:39;;;;;;;8.03;4.50;;;;;;;4.89;100.00;98818.56;4999262;28;20037;-69
2024/03/26 04:12:07;;;;;;;11.63;5.30;;;;;;;4.96;100.00;98819.66;5015436;28;20071;-71
2024/03/26 04:14:34;;;;;;;8.00;4.50;;;;;;;5.06;100.00;98824.88;5014779;28;20049;-71
2024/03/26 04:17:00;;;;;;;10.03;4.77;;;;;;;5.06;100.00;98827.50;5047701;28;20418;-71
2024/03/26 04:19:26;;;;;;;9.73;4.90;;;;;;;5.14;100.00;98828.47;5047286;28;20045;-70
2024/03/26 04:21:52;;;;;;;9.40;4.80;;;;;;;5.19;100.00;98828.03;4998173;28;20045;-70
2024/03/26 04:24:18;;;;;;;10.27;4.70;;;;;;;5.26;100.00;98830.94;5015878;28;20038;-70
2024/03/26 04:26:46;;;;;;;7.73;4.50;;;;;;;5.33;100.00;98817.03;5031884;28;20702;-68
2024/03/26 04:29:11;;;;;;;8.97;4.30;;;;;;;5.35;100.00;98825.59;5000926;28;20091;-68
2024/03/26 04:31:39;;;;;;;8.63;4.80;;;;;;;5.45;100.00;98822.94;5015878;28;20045;-77
2024/03/26 04:34:07;;;;;;;8.63;4.70;;;;;;;5.50;100.00;98834.69;5016593;28;20124;-68
2024/03/26 04:36:36;;;;;;;8.10;4.32;;;;;;;5.56;100.00;98831.47;5015367;28;20049;-66
2024/03/26 04:39:03;;;;;;;13.73;5.23;;;;;;;5.66;100.00;98837.53;4999684;28;20345;-66
2024/03/26 04:41:30;;;;;;;8.30;4.70;;;;;;;5.72;100.00;98854.56;4982177;28;20065;-67
2024/03/26 04:43:59;;;;;;;8.17;4.47;;;;;;;5.78;100.00;98841.59;4967071;28;20045;-68
2024/03/26 04:46:25;;;;;;;9.70;4.63;;;;;;;5.83;100.00;98847.31;5014728;28;20388;-67
2024/03/26 04:48:53;;;;;;;10.83;5.10;;;;;;;5.85;100.00;98839.25;4998444;28;20519;-66
2024/03/26 04:51:19;;;;;;;8.23;3.73;;;;;;;5.94;100.00;98847.09;4978833;28;20535;-71
2024/03/26 04:53:45;;;;;;;7.70;4.33;;;;;;;5.95;100.00;98854.03;4994940;28;20061;-67
2024/03/26 04:56:10;;;;;;;10.00;4.17;;;;;;;6.00;100.00;98848.31;4995097;28;20135;-67
2024/03/26 04:58:36;;;;;;;8.13;4.20;;;;;;;5.99;100.00;98852.75;4961448;28;20042;-68
2024/03/26 05:01:03;;;;;;;9.50;4.40;;;;;;;6.08;100.00;98851.03;5009370;28;20080;-67
2024/03/26 05:03:30;;;;;;;7.57;4.47;;;;;;;6.12;100.00;98844.50;4961613;28;20041;-66
2024/03/26 05:05:56;;;;;;;9.90;4.40;;;;;;;6.17;100.00;98852.78;4978488;28;20120;-67
2024/03/26 05:08:23;;;;;;;8.57;4.40;;;;;;;6.20;100.00;98848.03;4994229;28;20081;-66
2024/03/26 05:10:51;;;;;;;8.95;4.15;;;;;;;6.37;100.00;98852.50;4995230;28;20064;-68
2024/03/26 05:13:17;;;;;;;5.83;3.87;;;;;;;6.34;100.00;98852.78;5018895;28;20050;-67
2024/03/26 05:15:43;;;;;;;9.27;4.35;;;;;;;6.51;100.00;98851.97;4956093;28;20053;-67
2024/03/26 05:18:09;;;;;;;8.48;4.30;;;;;;;6.53;100.00;98852.63;4979941;28;20076;-68
2024/03/26 05:20:37;;;;;;;8.35;4.38;;;;;;;6.62;100.00;98859.66;4992092;28;20034;-68
2024/03/26 05:23:03;;;;;;;7.00;3.88;;;;;;;6.77;100.00;98858.13;5034738;28;20072;-69
2024/03/26 05:25:28;;;;;;;7.63;4.38;;;;;;;6.86;100.00;98851.91;5017663;28;20033;-68
2024/03/26 05:27:55;;;;;;;7.03;4.30;;;;;;;6.96;100.00;98856.28;5034029;28;20048;-67
2024/03/26 05:30:22;;;;;;;8.60;4.05;;;;;;;7.03;100.00;98866.06;5011010;28;20124;-67
2024/03/26 05:32:48;;;;;;;8.82;4.32;;;;;;;7.07;100.00;98851.56;5021535;28;20131;-68
2024/03/26 05:35:13;;;;;;;7.85;4.15;;;;;;;7.14;100.00;98862.31;5019763;28;20049;-66
2024/03/26 05:37:46;;;;;;;9.00;4.18;;;;;;;7.38;100.00;98867.78;5037988;28;20590;-70
2024/03/26 05:40:16;;;;;;;7.30;4.45;;;;;;;7.39;100.00;98869.41;5024314;28;20437;-68
2024/03/26 05:42:42;;;;;;;6.97;3.92;;;;;;;7.43;100.00;98870.75;4995058;28;20041;-70
2024/03/26 05:45:08;;;;;;;9.45;3.90;;;;;;;7.58;100.00;98882.41;5025457;28;20468;-67
2024/03/26 05:47:34;;;;;;;10.07;4.05;;;;;;;7.65;100.00;98873.69;5050122;28;20041;-69
2024/03/26 05:50:00;;;;;;;7.63;3.85;;;;;;;7.77;100.00;98876.88;5019176;28;20040;-67
2024/03/26 05:52:32;;;;;;;6.40;3.55;;;;;;;7.86;100.00;98875.91;5029395;28;20467;-67
2024/03/26 05:54:59;;;;;;;7.97;3.97;;;;;;;7.97;100.00;98875.63;5032307;28;20135;-67
2024/03/26 05:57:25;;;;;;;8.05;4.00;;;;;;;8.06;100.00;98872.03;5025264;28;20075;-67
2024/03/26 05:59:51;;;;;;;9.70;4.82;;;;;;;8.19;100.00;98873.25;5049842;28;20102;-67
2024/03/26 06:02:17;;;;;;;9.25;4.30;;;;;;;8.28;100.00;98869.66;5050775;28;20033;-70
2024/03/26 06:04:46;;;;;;;7.75;4.20;;;;;;;8.50;100.00;98873.50;5025182;28;20394;-67
2024/03/26 06:07:13;;;;;;;9.20;3.58;;;;;;;8.57;100.00;98863.91;4995713;28;20041;-67
2024/03/26 06:09:39;;;;;;;8.00;4.10;;;;;;;8.70;100.00;98866.06;5026025;28;20041;-70
2024/03/26 06:12:05;;;;;;;10.80;4.00;;;;;;;8.84;100.00;98862.75;5029919;28;20055;-67
2024/03/26 06:14:31;;;;;;;9.30;3.90;;;;;;;8.98;100.00;98868.19;5000139;28;20064;-67
2024/03/26 06:17:00;;;;;;;9.75;3.53;;;;;;;9.20;100.00;98867.53;5009370;28;20042;-67
2024/03/26 06:19:25;;;;;;;8.10;3.80;;;;;;;9.17;100.00;98869.66;5026017;28;20440;-66
2024/03/26 06:21:52;;;;;;;6.38;3.20;;;;;;;9.28;100.00;98871.97;5017649;28;20041;-67
2024/03/26 06:24:18;;;;;;;5.38;3.00;;;;;;;9.38;100.00;98868.16;5050608;28;20107;-68
2024/03/26 06:26:44;;;;;;;5.60;3.33;;;;;;;9.53;100.00;98869.09;5047852;28;20424;-67
2024/03/26 06:29:11;;;;;;;9.18;3.50;;;;;;;9.68;100.00;98874.53;5006879;28;20124;-67
2024/03/26 06:31:37;;;;;;;5.03;3.25;;;;;;;9.80;100.00;98870.50;4997779;28;20063;-67
2024/03/26 06:34:03;;;;;;;4.93;3.20;;;;;;;10.04;100.00;98881.03;5011081;28;20053;-67
2024/03/26 06:36:30;;;;;;;6.22;3.05;;;;;;;10.20;100.00;98873.84;4995495;28;20151;-67
2024/03/26 06:38:56;;;;;;;6.53;3.03;;;;;;;10.38;100.00;98870.91;4997218;28;20472;-67
2024/03/26 06:41:22;;;;;;;5.95;2.92;;;;;;;10.51;100.00;98876.47;4996889;28;20056;-67
2024/03/26 06:43:48;;;;;;;5.53;3.33;;;;;;;10.61;100.00;98871.75;4980602;28;20042;-67
2024/03/26 06:46:14;;;;;;;5.35;3.10;;;;;;;10.76;100.00;98864.69;4980650;28;20408;-70
2024/03/26 06:48:40;;;;;;;6.15;2.85;;;;;;;10.88;100.00;98873.88;4964517;28;20045;-68
2024/03/26 06:51:08;;;;;;;7.03;3.05;;;;;;;11.02;100.00;98865.13;4980255;28;20149;-67
2024/03/26 06:53:34;;;;;;;4.47;3.10;;;;;;;11.07;100.00;98867.25;5011955;28;20054;-66
2024/03/26 06:56:01;;;;;;;6.47;2.92;;;;;;;11.18;100.00;98870.28;4978159;28;20043;-69
2024/03/26 06:58:28;;;;;;;8.00;2.83;;;;;;;11.28;100.00;98873.53;4963556;28;20044;-66
2024/03/26 07:00:54;;;;;;;7.05;2.90;;;;;;;11.50;100.00;98871.81;4995715;28;20041;-67
2024/03/26 07:03:20;;;;;;;6.05;2.97;;;;;;;11.64;100.00;98881.63;4980575;28;20053;-66
2024/03/26 07:05:45;;;;;;;5.15;3.22;;;;;;;11.72;100.00;98878.91;4979577;28;20045;-67
2024/03/26 07:08:11;;;;;;;7.78;2.88;;;;;;;11.92;97.43;98873.88;5017191;28;20061;-66
2024/03/26 07:10:39;;;;;;;6.57;3.30;;;;;;;12.09;96.38;98873.44;5021887;28;20037;-67
2024/03/26 07:13:05;;;;;;;6.13;3.25;;;;;;;12.15;93.46;98864.72;5014858;28;20107;-66
2024/03/26 07:15:31;;;;;;;6.80;3.30;;;;;;;12.36;92.17;98874.59;5051487;28;20539;-68
2024/03/26 07:17:57;;;;;;;5.28;3.00;;;;;;;12.62;90.75;98881.06;5012115;28;20468;-66
2024/03/26 07:20:24;;;;;;;8.27;3.40;;;;;;;12.80;87.00;98869.94;5011019;28;20100;-66
2024/03/26 07:22:50;;;;;;;6.57;2.88;;;;;;;13.04;84.85;98878.41;4984333;28;20073;-67
2024/03/26 07:25:15;;;;;;;8.68;3.70;;;;;;;13.24;81.32;98879.38;5000296;28;20038;-67
2024/03/26 07:27:44;;;;;;;8.35;4.00;;;;;;;13.29;79.47;98876.13;5016809;28;20408;-71
2024/03/26 07:30:11;;;;;;;6.60;3.47;;;;;;;13.41;80.26;98885.25;5019519;28;20498;-66
2024/03/26 07:32:37;;;;;;;7.40;4.03;;;;;;;13.45;78.37;98882.00;5058458;28;20056;-66
2024/03/26 07:35:03;;;;;;;8.27;4.10;;;;;;;13.54;75.71;98885.34;5030065;28;20049;-67
2024/03/26 07:37:31;;;;;;;5.82;3.58;;;;;;;13.66;76.12;98885.63;5024727;28;20535;-66
2024/03/26 07:39:57;;;;;;;6.22;3.00;;;;;;;13.63;74.83;98878.84;5027349;28;20479;-66
2024/03/26 07:42:22;;;;;;;6.35;3.10;;;;;;;13.70;74.01;98884.22;5030415;28;20040;-67
2024/03/26 07:44:50;;;;;;;6.47;3.20;;;;;;;13.81;73.41;98886.34;5036019;28;20049;-67
2024/03/26 07:47:16;;;;;;;4.90;2.95;;;;;;;13.87;71.60;98896.25;5052742;28;20045;-66
2024/03/26 07:49:42;;;;;;;6.15;2.80;;;;;;;13.99;69.81;98900.81;5036440;28;20468;-67
2024/03/26 07:52:07;;;;;;;5.57;3.05;;;;;;;14.19;67.83;98895.59;5035744;28;20052;-67
2024/03/26 07:54:33;;;;;;;7.70;3.03;;;;;;;14.36;66.17;98892.38;5035853;28;20135;-66
2024/03/26 07:56:59;;;;;;;5.10;2.90;;;;;;;14.52;62.89;98891.22;5036003;28;20041;-67
2024/03/26 07:59:25;;;;;;;5.43;2.30;;;;;;;14.96;61.67;98903.03;5019887;28;20041;-67
2024/03/26 08:01:51;;;;;;;3.92;2.35;;;;;;;15.43;59.63;98893.22;5019841;28;20041;-67
2024/03/26 08:04:17;;;;;;;6.13;2.55;;;;;;;15.99;56.14;98884.44;5029309;28;20042;-70
2024/03/26 08:06:43;;;;;;;5.10;2.45;;;;;;;16.57;52.49;98891.50;5032529;28;20064;-71
2024/03/26 08:09:10;;;;;;;3.30;2.38;;;;;;;17.22;49.68;98881.34;4994704;28;20052;-68
2024/03/26 08:11:36;;;;;;;4.68;2.42;;;;;;;17.54;46.56;98888.34;5043382;28;20381;-68
2024/03/26 08:14:02;;;;;;;5.00;2.58;;;;;;;17.88;44.92;98893.19;5010240;28;20064;-69
2024/03/26 08:16:28;;;;;;;7.50;2.30;;;;;;;17.89;43.16;98894.81;5025725;28;20061;-69
2024/03/26 08:18:55;;;;;;;5.55;2.33;;;;;;;18.03;42.92;98891.78;5039798;28;20076;-68
2024/03/26 08:21:21;;;;;;;4.82;2.30;;;;;;;17.92;42.02;98891.69;5025762;28;20033;-68
2024/03/26 08:23:48;;;;;;;4.40;2.47;;;;;;;17.96;42.42;98884.81;5039166;28;20043;-68
2024/03/26 08:26:15;;;;;;;4.03;2.08;;;;;;;18.50;42.06;98884.81;4998264;28;20526;-68
2024/03/26 08:28:43;;;;;;;4.10;2.13;;;;;;;19.30;39.50;98889.66;5017865;28;20045;-68
2024/03/26 08:31:08;;;;;;;2.45;2.00;;;;;;;20.14;37.37;98886.53;5033423;28;20056;-68
2024/03/26 08:33:34;;;;;;;3.95;2.17;;;;;;;20.85;35.10;98886.09;5033462;28;20045;-68
2024/03/26 08:36:04;;;;;;;4.18;1.80;;;;;;;21.48;33.47;98886.69;5017906;28;20075;-68
2024/03/26 08:38:31;;;;;;;3.30;1.90;;;;;;;21.29;32.68;98885.28;5001488;28;20040;-68
2024/03/26 08:40:58;;;;;;;5.20;1.90;;;;;;;21.08;32.76;98894.91;5017249;28;20048;-68
2024/03/26 08:43:24;;;;;;;5.18;1.98;;;;;;;20.87;32.60;98887.47;5017318;28;20041;-68
2024/03/26 08:45:50;;;;;;;3.33;1.77;;;;;;;20.93;32.52;98883.78;5015947;28;20466;-68
2024/03/26 08:48:17;;;;;;;4.03;2.00;;;;;;;21.63;32.31;98892.31;5016813;28;20068;-69
2024/03/26 08:50:43;;;;;;;3.42;1.90;;;;;;;22.22;30.81;98893.47;4998050;28;20127;-67
2024/03/26 08:53:09;;;;;;;3.00;1.83;;;;;;;22.85;29.50;98899.94;5016487;28;20135;-67
2024/03/26 08:55:35;;;;;;;4.93;1.58;;;;;;;23.06;28.61;98893.66;5029505;28;20124;-67
2024/03/26 08:58:01;;;;;;;3.05;2.08;;;;;;;23.67;28.05;98892.31;5047070;28;20106;-68
2024/03/26 09:00:27;;;;;;;2.58;2.08;;;;;;;24.43;26.46;98897.13;5027603;28;20152;-67
2024/03/26 09:02:52;;;;;;;2.00;1.50;;;;;;;24.46;26.25;98902.03;5043396;28;20065;-68
2024/03/26 09:05:18;;;;;;;2.45;1.45;;;;;;;24.07;26.04;98895.31;5031203;28;20041;-68
2024/03/26 09:07:45;;;;;;;2.47;2.20;;;;;;;23.74;26.53;98889.38;5015506;28;20056;-68
2024/03/26 09:10:12;;;;;;;3.05;2.13;;;;;;;23.80;26.31;98897.28;4999091;28;20534;-70
2024/03/26 09:12:38;;;;;;;4.50;2.05;;;;;;;23.93;26.20;98890.59;4981456;28;20065;-67
2024/03/26 09:15:04;;;;;;;2.45;2.00;;;;;;;24.44;25.73;98892.53;4980243;28;20077;-67
2024/03/26 09:17:31;;;;;;;2.45;1.90;;;;;;;24.97;24.57;98888.66;5008468;28;20063;-67
2024/03/26 09:19:57;;;;;;;2.63;1.90;;;;;;;25.27;24.46;98892.22;5012714;28;20045;-68
2024/03/26 09:22:24;;;;;;;2.30;2.08;;;;;;;25.64;23.70;98892.00;5023514;28;20475;-67
2024/03/26 09:24:50;;;;;;;4.22;2.53;;;;;;;26.10;22.96;98886.25;5033743;28;20047;-67
2024/03/26 09:27:16;;;;;;;2.70;2.20;;;;;;;26.83;22.12;98884.59;5000542;28;20048;-69
2024/03/26 09:29:43;;;;;;;2.20;2.00;;;;;;;27.96;21.25;98885.13;5000438;28;20423;-68
2024/03/26 09:32:10;;;;;;;2.58;2.20;;;;;;;28.72;20.18;98880.44;5000345;28;20131;-67
2024/03/26 09:34:37;;;;;;;2.00;1.77;;;;;;;29.44;19.69;98882.66;4983715;28;20175;-68
2024/03/26 09:37:02;;;;;;;2.90;1.85;;;;;;;29.99;19.40;98874.59;4996577;28;20048;-68
2024/03/26 09:39:29;;;;;;;5.05;1.55;;;;;;;28.26;19.61;98876.63;4978721;28;20041;-68
2024/03/26 09:41:58;;;;;;;1.48;1.30;;;;;;;28.18;20.14;98874.50;4984714;28;20093;-68
2024/03/26 09:44:30;;;;;;;1.20;1.10;;;;;;;28.45;20.05;98876.63;4989949;28;20141;-68
2024/03/26 09:46:57;;;;;;;1.40;1.30;;;;;;;28.79;19.57;98874.59;4958227;28;20054;-69
2024/03/26 09:49:26;;;;;;;2.83;1.52;;;;;;;28.80;19.48;98876.22;4942027;28;20042;-67
2024/03/26 09:51:58;;;;;;;1.95;1.50;;;;;;;29.06;18.80;98866.59;4916112;29;20058;-69
2024/03/26 09:54:29;;;;;;;1.98;1.45;;;;;;;29.01;19.08;98869.34;4917144;29;20065;-68
2024/03/26 09:56:55;;;;;;;2.28;1.77;;;;;;;29.11;18.64;98867.31;4900949;29;20060;-68
2024/03/26 09:59:21;;;;;;;2.75;1.80;;;;;;;29.25;18.58;98864.63;4900843;29;20047;-68
2024/03/26 10:01:49;;;;;;;1.83;1.60;;;;;;;29.94;18.41;98869.25;4897509;29;20559;-69
2024/03/26 10:04:15;;;;;;;3.55;1.70;;;;;;;29.93;17.95;98873.06;4878105;29;20048;-78
2024/03/26 10:06:42;;;;;;;1.23;1.10;;;;;;;29.54;18.14;98870.72;4862482;29;20060;-68
2024/03/26 10:09:08;;;;;;;2.40;1.67;;;;;;;29.11;18.08;98870.03;4859982;29;20520;-67
2024/03/26 10:11:35;;;;;;;1.50;1.40;;;;;;;29.30;18.09;98861.81;4860151;29;20061;-68
2024/03/26 10:14:01;;;;;;;1.50;1.40;;;;;;;29.47;17.67;98870.28;4859911;29;20056;-69
2024/03/26 10:16:27;;;;;;;1.67;1.58;;;;;;;29.54;17.62;98867.97;4865652;29;20056;-69
2024/03/26 10:18:54;;;;;;;2.97;2.10;;;;;;;29.38;17.65;98859.22;4878728;29;20448;-68
2024/03/26 10:21:20;;;;;;;2.75;1.52;;;;;;;29.30;17.96;98864.56;4878685;29;20056;-68
2024/03/26 10:23:47;;;;;;;1.60;1.50;;;;;;;28.94;18.10;98857.97;4895150;29;20052;-69
2024/03/26 10:26:15;;;;;;;2.45;1.65;;;;;;;28.57;17.91;98861.47;4898750;29;20054;-68
2024/03/26 10:28:43;;;;;;;1.60;1.50;;;;;;;28.19;18.20;98856.19;4936263;28;20490;-68
2024/03/26 10:31:14;;;;;;;3.00;1.42;;;;;;;28.00;18.57;98867.88;4957777;28;20421;-69
2024/03/26 10:33:41;;;;;;;2.03;1.20;;;;;;;27.57;18.95;98855.16;4978059;28;20408;-68
2024/03/26 10:36:08;;;;;;;1.30;1.20;;;;;;;27.39;19.28;98853.16;4942200;28;20479;-68
2024/03/26 10:38:36;;;;;;;1.65;1.40;;;;;;;27.15;19.71;98844.06;4960740;28;20050;-67
2024/03/26 10:41:04;;;;;;;1.70;1.40;;;;;;;26.99;19.55;98852.59;4960786;28;20129;-68
2024/03/26 10:43:30;;;;;;;2.38;1.38;;;;;;;26.61;19.79;98853.34;4945096;28;20046;-67
2024/03/26 10:45:56;;;;;;;1.55;1.23;;;;;;;26.21;20.01;98852.44;4959952;28;20393;-70
2024/03/26 10:48:22;;;;;;;1.63;1.40;;;;;;;25.85;20.23;98850.06;4977228;28;20038;-68
2024/03/26 10:50:49;;;;;;;2.17;1.63;;;;;;;25.60;20.65;98848.19;4977518;28;20072;-68
2024/03/26 10:53:15;;;;;;;1.70;1.60;;;;;;;25.73;20.61;98847.66;4977437;28;20136;-67
2024/03/26 10:55:43;;;;;;;2.80;1.60;;;;;;;25.86;20.44;98841.63;4960936;28;20089;-67
2024/03/26 10:58:09;;;;;;;1.55;1.38;;;;;;;26.05;20.49;98839.16;4976299;28;20434;-67
2024/03/26 11:00:38;;;;;;;2.50;1.30;;;;;;;25.94;20.47;98840.25;4976261;28;20101;-68
2024/03/26 11:03:06;;;;;;;2.42;1.70;;;;;;;26.12;20.23;98839.69;4992506;28;20042;-72
2024/03/26 11:05:35;;;;;;;3.75;2.30;;;;;;;26.57;19.98;98844.91;4987368;28;20038;-68
2024/03/26 11:08:01;;;;;;;2.38;1.63;;;;;;;27.29;19.29;98850.50;4985840;28;20053;-66
2024/03/26 11:10:27;;;;;;;2.53;1.70;;;;;;;27.55;19.14;98849.22;4993860;28;20480;-69
2024/03/26 11:12:53;;;;;;;3.03;1.92;;;;;;;27.84;18.70;98843.72;5036237;28;20371;-67
2024/03/26 11:15:31;;;;;;;2.45;1.42;;;;;;;28.20;18.65;98844.97;5013500;28;20042;-66
2024/03/26 11:18:05;;;;;;;2.72;1.77;;;;;;;28.39;18.48;98847.75;5043820;28;20072;-67
2024/03/26 11:20:32;;;;;;;4.32;1.40;;;;;;;27.90;18.80;98839.88;5027221;28;20037;-67
2024/03/26 11:23:02;;;;;;;4.63;1.63;;;;;;;27.86;18.60;98845.06;5042658;28;20037;-69
2024/03/26 11:25:28;;;;;;;2.40;1.80;;;;;;;28.54;18.36;98842.16;5025114;28;20028;-67
2024/03/26 11:27:56;;;;;;;3.90;1.73;;;;;;;28.22;18.22;98850.97;5024698;28;20060;-67
2024/03/26 11:30:26;;;;;;;2.65;1.50;;;;;;;28.00;18.38;98846.03;5017921;28;20053;-67